sensor_id;sensor_type;location;lat;lon;timestamp;P1;durP1;ratioP1;P2;durP2;ratioP2
53479;SDS011;56133;51.012;-1.648;2022-09-09T00:00:27;18.60;;;5.65;;
53479;SDS011;56133;51.012;-1.648;2022-09-09T00:03:04;18.23;;;5.57;;
53479;SDS011;56133;51.012;-1.648;2022-09-09T00:08:17;17.33;;;6.93;;
53479;SDS011;56133;51.012;-1.648;2022-09-09T00:10:45;17.77;;;6.78;;
53479;SDS011;56133;51.012;-1.648;2022-09-09T00:13:22;17.58;;;6.70;;
53479;SDS011;56133;51.012;-1.648;2022-09-09T00:21:47;16.58;;;8.15;;
53479;SDS011;56133;51.012;-1.648;2022-09-09T00:24:38;15.95;;;8.77;;
53479;SDS011;56133;51.012;-1.648;2022-09-09T00:27:10;20.80;;;8.27;;
53479;SDS011;56133;51.012;-1.648;2022-09-09T00:29:58;17.65;;;9.00;;
53479;SDS011;56133;51.012;-1.648;2022-09-09T00:33:10;14.05;;;8.18;;
53479;SDS011;56133;51.012;-1.648;2022-09-09T00:35:44;15.43;;;7.75;;
53479;SDS011;56133;51.012;-1.648;2022-09-09T00:38:31;19.65;;;8.70;;
53479;SDS011;56133;51.012;-1.648;2022-09-09T00:41:11;14.55;;;8.05;;
53479;SDS011;56133;51.012;-1.648;2022-09-09T00:43:46;21.63;;;9.55;;
53479;SDS011;56133;51.012;-1.648;2022-09-09T00:54:31;15.77;;;9.30;;
53479;SDS011;56133;51.012;-1.648;2022-09-09T01:02:02;20.80;;;11.52;;
53479;SDS011;56133;51.012;-1.648;2022-09-09T01:04:38;22.35;;;13.02;;
53479;SDS011;56133;51.012;-1.648;2022-09-09T01:07:06;25.90;;;13.65;;
53479;SDS011;56133;51.012;-1.648;2022-09-09T01:12:16;27.15;;;15.98;;
53479;SDS011;56133;51.012;-1.648;2022-09-09T01:14:49;25.20;;;16.20;;
53479;SDS011;56133;51.012;-1.648;2022-09-09T01:28:48;21.83;;;13.60;;
53479;SDS011;56133;51.012;-1.648;2022-09-09T01:31:19;23.20;;;13.02;;
53479;SDS011;56133;51.012;-1.648;2022-09-09T01:33:47;21.40;;;13.13;;
53479;SDS011;56133;51.012;-1.648;2022-09-09T01:38:51;20.63;;;11.88;;
53479;SDS011;56133;51.012;-1.648;2022-09-09T01:41:17;18.45;;;11.57;;
53479;SDS011;56133;51.012;-1.648;2022-09-09T01:43:43;17.08;;;11.07;;
53479;SDS011;56133;51.012;-1.648;2022-09-09T01:46:08;19.55;;;11.20;;
53479;SDS011;56133;51.012;-1.648;2022-09-09T01:48:36;20.80;;;10.40;;
53479;SDS011;56133;51.012;-1.648;2022-09-09T01:51:02;21.55;;;10.40;;
53479;SDS011;56133;51.012;-1.648;2022-09-09T01:53:28;15.30;;;9.98;;
53479;SDS011;56133;51.012;-1.648;2022-09-09T02:04:08;21.83;;;10.88;;
53479;SDS011;56133;51.012;-1.648;2022-09-09T02:06:48;20.08;;;10.80;;
53479;SDS011;56133;51.012;-1.648;2022-09-09T02:09:21;16.70;;;10.73;;
53479;SDS011;56133;51.012;-1.648;2022-09-09T02:11:49;16.48;;;9.77;;
53479;SDS011;56133;51.012;-1.648;2022-09-09T02:14:28;19.17;;;10.32;;
53479;SDS011;56133;51.012;-1.648;2022-09-09T02:17:01;18.92;;;9.15;;
53479;SDS011;56133;51.012;-1.648;2022-09-09T02:19:34;15.43;;;9.60;;
53479;SDS011;56133;51.012;-1.648;2022-09-09T02:22:04;13.85;;;9.20;;
53479;SDS011;56133;51.012;-1.648;2022-09-09T02:24:30;16.08;;;9.60;;
53479;SDS011;56133;51.012;-1.648;2022-09-09T02:27:02;17.70;;;9.55;;
53479;SDS011;56133;51.012;-1.648;2022-09-09T02:29:39;14.73;;;9.60;;
53479;SDS011;56133;51.012;-1.648;2022-09-09T02:32:07;19.92;;;9.93;;
53479;SDS011;56133;51.012;-1.648;2022-09-09T02:34:36;19.92;;;11.40;;
53479;SDS011;56133;51.012;-1.648;2022-09-09T02:37:07;19.00;;;10.70;;
53479;SDS011;56133;51.012;-1.648;2022-09-09T02:39:36;23.45;;;12.23;;
53479;SDS011;56133;51.012;-1.648;2022-09-09T02:42:03;17.83;;;11.82;;
53479;SDS011;56133;51.012;-1.648;2022-09-09T02:44:29;15.18;;;11.63;;
53479;SDS011;56133;51.012;-1.648;2022-09-09T02:52:20;18.80;;;12.23;;
53479;SDS011;56133;51.012;-1.648;2022-09-09T02:54:57;22.50;;;13.32;;
53479;SDS011;56133;51.012;-1.648;2022-09-09T02:57:29;22.27;;;13.45;;
53479;SDS011;56133;51.012;-1.648;2022-09-09T02:59:58;22.60;;;12.98;;
53479;SDS011;56133;51.012;-1.648;2022-09-09T03:02:25;21.98;;;13.57;;
53479;SDS011;56133;51.012;-1.648;2022-09-09T03:04:50;25.52;;;15.15;;
53479;SDS011;56133;51.012;-1.648;2022-09-09T03:07:19;25.38;;;15.02;;
53479;SDS011;56133;51.012;-1.648;2022-09-09T03:09:45;26.90;;;16.60;;
53479;SDS011;56133;51.012;-1.648;2022-09-09T03:12:11;26.63;;;15.90;;
53479;SDS011;56133;51.012;-1.648;2022-09-09T03:14:37;27.92;;;17.45;;
53479;SDS011;56133;51.012;-1.648;2022-09-09T03:17:03;28.10;;;17.02;;
53479;SDS011;56133;51.012;-1.648;2022-09-09T03:19:29;25.17;;;17.20;;
53479;SDS011;56133;51.012;-1.648;2022-09-09T03:21:55;30.90;;;18.15;;
53479;SDS011;56133;51.012;-1.648;2022-09-09T03:24:21;28.80;;;18.20;;
53479;SDS011;56133;51.012;-1.648;2022-09-09T03:26:47;31.67;;;18.70;;
53479;SDS011;56133;51.012;-1.648;2022-09-09T03:29:13;24.70;;;16.95;;
53479;SDS011;56133;51.012;-1.648;2022-09-09T03:31:39;28.73;;;16.92;;
53479;SDS011;56133;51.012;-1.648;2022-09-09T03:34:05;24.45;;;17.70;;
53479;SDS011;56133;51.012;-1.648;2022-09-09T03:36:30;23.70;;;17.38;;
53479;SDS011;56133;51.012;-1.648;2022-09-09T03:38:56;27.90;;;17.75;;
53479;SDS011;56133;51.012;-1.648;2022-09-09T03:41:23;24.75;;;18.33;;
53479;SDS011;56133;51.012;-1.648;2022-09-09T03:43:52;30.10;;;18.52;;
53479;SDS011;56133;51.012;-1.648;2022-09-09T03:46:19;30.52;;;20.13;;
53479;SDS011;56133;51.012;-1.648;2022-09-09T03:48:46;31.83;;;19.48;;
53479;SDS011;56133;51.012;-1.648;2022-09-09T03:51:11;32.58;;;19.30;;
53479;SDS011;56133;51.012;-1.648;2022-09-09T03:53:37;28.60;;;18.58;;
53479;SDS011;56133;51.012;-1.648;2022-09-09T03:56:04;32.13;;;20.13;;
53479;SDS011;56133;51.012;-1.648;2022-09-09T03:58:31;30.50;;;19.30;;
53479;SDS011;56133;51.012;-1.648;2022-09-09T04:01:03;25.60;;;17.80;;
53479;SDS011;56133;51.012;-1.648;2022-09-09T04:03:30;27.33;;;18.60;;
53479;SDS011;56133;51.012;-1.648;2022-09-09T04:05:56;24.30;;;16.90;;
53479;SDS011;56133;51.012;-1.648;2022-09-09T04:08:23;24.23;;;16.63;;
53479;SDS011;56133;51.012;-1.648;2022-09-09T04:10:51;26.05;;;15.90;;
53479;SDS011;56133;51.012;-1.648;2022-09-09T04:13:18;24.55;;;15.88;;
53479;SDS011;56133;51.012;-1.648;2022-09-09T04:15:49;27.42;;;17.17;;
53479;SDS011;56133;51.012;-1.648;2022-09-09T04:18:16;27.80;;;16.00;;
53479;SDS011;56133;51.012;-1.648;2022-09-09T04:20:42;26.23;;;16.05;;
53479;SDS011;56133;51.012;-1.648;2022-09-09T04:23:08;26.55;;;16.13;;
53479;SDS011;56133;51.012;-1.648;2022-09-09T04:25:34;25.13;;;16.70;;
53479;SDS011;56133;51.012;-1.648;2022-09-09T04:27:59;25.27;;;16.42;;
53479;SDS011;56133;51.012;-1.648;2022-09-09T04:30:24;24.35;;;15.20;;
53479;SDS011;56133;51.012;-1.648;2022-09-09T04:32:50;25.00;;;15.52;;
53479;SDS011;56133;51.012;-1.648;2022-09-09T04:35:16;26.75;;;15.82;;
53479;SDS011;56133;51.012;-1.648;2022-09-09T04:37:42;23.08;;;15.18;;
53479;SDS011;56133;51.012;-1.648;2022-09-09T04:40:07;18.67;;;13.98;;
53479;SDS011;56133;51.012;-1.648;2022-09-09T04:42:37;23.63;;;14.77;;
53479;SDS011;56133;51.012;-1.648;2022-09-09T04:45:04;25.35;;;15.27;;
53479;SDS011;56133;51.012;-1.648;2022-09-09T04:47:31;24.60;;;14.75;;
53479;SDS011;56133;51.012;-1.648;2022-09-09T04:49:57;22.35;;;15.05;;
53479;SDS011;56133;51.012;-1.648;2022-09-09T04:52:23;23.83;;;14.13;;
53479;SDS011;56133;51.012;-1.648;2022-09-09T04:54:48;19.77;;;13.73;;
53479;SDS011;56133;51.012;-1.648;2022-09-09T04:57:13;17.77;;;12.57;;
53479;SDS011;56133;51.012;-1.648;2022-09-09T04:59:39;22.48;;;15.30;;
53479;SDS011;56133;51.012;-1.648;2022-09-09T05:02:04;28.67;;;14.63;;
53479;SDS011;56133;51.012;-1.648;2022-09-09T05:04:30;20.88;;;14.05;;
53479;SDS011;56133;51.012;-1.648;2022-09-09T05:06:56;21.13;;;14.30;;
53479;SDS011;56133;51.012;-1.648;2022-09-09T05:09:21;24.92;;;14.27;;
53479;SDS011;56133;51.012;-1.648;2022-09-09T05:11:46;23.33;;;14.57;;
53479;SDS011;56133;51.012;-1.648;2022-09-09T05:14:12;21.02;;;14.07;;
53479;SDS011;56133;51.012;-1.648;2022-09-09T05:16:37;20.55;;;14.10;;
53479;SDS011;56133;51.012;-1.648;2022-09-09T05:19:03;20.73;;;13.18;;
53479;SDS011;56133;51.012;-1.648;2022-09-09T05:21:29;19.70;;;13.40;;
53479;SDS011;56133;51.012;-1.648;2022-09-09T05:23:55;16.30;;;12.65;;
53479;SDS011;56133;51.012;-1.648;2022-09-09T05:26:22;21.77;;;13.20;;
53479;SDS011;56133;51.012;-1.648;2022-09-09T05:28:47;17.75;;;12.25;;
53479;SDS011;56133;51.012;-1.648;2022-09-09T05:31:14;20.98;;;13.23;;
53479;SDS011;56133;51.012;-1.648;2022-09-09T05:33:41;17.77;;;13.15;;
53479;SDS011;56133;51.012;-1.648;2022-09-09T05:36:09;20.13;;;12.23;;
53479;SDS011;56133;51.012;-1.648;2022-09-09T05:38:39;19.23;;;12.40;;
53479;SDS011;56133;51.012;-1.648;2022-09-09T05:41:05;17.10;;;13.07;;
53479;SDS011;56133;51.012;-1.648;2022-09-09T05:43:32;19.13;;;12.43;;
53479;SDS011;56133;51.012;-1.648;2022-09-09T05:46:06;22.13;;;13.75;;
53479;SDS011;56133;51.012;-1.648;2022-09-09T05:48:36;24.98;;;13.30;;
53479;SDS011;56133;51.012;-1.648;2022-09-09T05:51:04;18.40;;;13.95;;
53479;SDS011;56133;51.012;-1.648;2022-09-09T05:53:32;17.65;;;12.65;;
53479;SDS011;56133;51.012;-1.648;2022-09-09T05:56:09;19.60;;;12.77;;
53479;SDS011;56133;51.012;-1.648;2022-09-09T05:58:42;21.67;;;12.45;;
53479;SDS011;56133;51.012;-1.648;2022-09-09T06:01:09;16.10;;;11.65;;
53479;SDS011;56133;51.012;-1.648;2022-09-09T06:03:37;20.40;;;11.40;;
53479;SDS011;56133;51.012;-1.648;2022-09-09T06:06:04;19.10;;;11.75;;
53479;SDS011;56133;51.012;-1.648;2022-09-09T06:08:32;19.67;;;12.07;;
53479;SDS011;56133;51.012;-1.648;2022-09-09T06:11:02;20.90;;;13.85;;
53479;SDS011;56133;51.012;-1.648;2022-09-09T06:13:29;20.38;;;13.63;;
53479;SDS011;56133;51.012;-1.648;2022-09-09T06:15:56;22.27;;;14.02;;
53479;SDS011;56133;51.012;-1.648;2022-09-09T06:18:21;22.00;;;14.02;;
53479;SDS011;56133;51.012;-1.648;2022-09-09T06:20:59;21.88;;;14.95;;
53479;SDS011;56133;51.012;-1.648;2022-09-09T06:23:27;20.45;;;13.73;;
53479;SDS011;56133;51.012;-1.648;2022-09-09T06:28:31;19.15;;;12.55;;
53479;SDS011;56133;51.012;-1.648;2022-09-09T06:31:00;22.35;;;14.00;;
53479;SDS011;56133;51.012;-1.648;2022-09-09T06:33:30;22.15;;;13.55;;
53479;SDS011;56133;51.012;-1.648;2022-09-09T06:35:56;19.10;;;13.65;;
53479;SDS011;56133;51.012;-1.648;2022-09-09T06:38:23;18.52;;;14.23;;
53479;SDS011;56133;51.012;-1.648;2022-09-09T06:40:52;14.60;;;12.27;;
53479;SDS011;56133;51.012;-1.648;2022-09-09T06:43:22;18.35;;;13.13;;
53479;SDS011;56133;51.012;-1.648;2022-09-09T06:48:26;18.73;;;11.18;;
53479;SDS011;56133;51.012;-1.648;2022-09-09T06:51:12;14.65;;;6.53;;
53479;SDS011;56133;51.012;-1.648;2022-09-09T06:53:41;10.05;;;5.80;;
53479;SDS011;56133;51.012;-1.648;2022-09-09T06:58:39;7.15;;;3.53;;
53479;SDS011;56133;51.012;-1.648;2022-09-09T07:01:12;7.13;;;3.70;;
53479;SDS011;56133;51.012;-1.648;2022-09-09T07:03:38;13.40;;;4.78;;
53479;SDS011;56133;51.012;-1.648;2022-09-09T07:06:05;7.18;;;3.53;;
53479;SDS011;56133;51.012;-1.648;2022-09-09T07:08:31;7.35;;;3.30;;
53479;SDS011;56133;51.012;-1.648;2022-09-09T07:11:03;10.68;;;3.75;;
53479;SDS011;56133;51.012;-1.648;2022-09-09T07:13:30;6.88;;;3.22;;
53479;SDS011;56133;51.012;-1.648;2022-09-09T07:16:02;11.25;;;3.30;;
53479;SDS011;56133;51.012;-1.648;2022-09-09T07:18:33;7.30;;;3.13;;
53479;SDS011;56133;51.012;-1.648;2022-09-09T07:20:59;13.95;;;2.97;;
53479;SDS011;56133;51.012;-1.648;2022-09-09T07:23:27;13.10;;;2.95;;
53479;SDS011;56133;51.012;-1.648;2022-09-09T07:25:53;6.28;;;3.05;;
53479;SDS011;56133;51.012;-1.648;2022-09-09T07:28:18;8.00;;;3.20;;
53479;SDS011;56133;51.012;-1.648;2022-09-09T07:30:52;10.25;;;3.08;;
53479;SDS011;56133;51.012;-1.648;2022-09-09T07:33:22;5.35;;;2.75;;
53479;SDS011;56133;51.012;-1.648;2022-09-09T07:35:47;9.55;;;3.30;;
53479;SDS011;56133;51.012;-1.648;2022-09-09T07:38:13;7.65;;;2.40;;
53479;SDS011;56133;51.012;-1.648;2022-09-09T07:40:39;6.53;;;2.50;;
53479;SDS011;56133;51.012;-1.648;2022-09-09T07:43:05;7.18;;;2.08;;
53479;SDS011;56133;51.012;-1.648;2022-09-09T07:45:30;5.70;;;2.30;;
53479;SDS011;56133;51.012;-1.648;2022-09-09T07:47:57;7.38;;;2.50;;
53479;SDS011;56133;51.012;-1.648;2022-09-09T07:50:23;4.05;;;2.00;;
53479;SDS011;56133;51.012;-1.648;2022-09-09T07:52:50;7.38;;;2.60;;
53479;SDS011;56133;51.012;-1.648;2022-09-09T07:55:16;7.88;;;2.30;;
53479;SDS011;56133;51.012;-1.648;2022-09-09T07:57:41;9.73;;;3.20;;
53479;SDS011;56133;51.012;-1.648;2022-09-09T08:00:07;9.38;;;3.30;;
53479;SDS011;56133;51.012;-1.648;2022-09-09T08:02:33;5.50;;;2.63;;
53479;SDS011;56133;51.012;-1.648;2022-09-09T08:04:58;4.95;;;2.38;;
53479;SDS011;56133;51.012;-1.648;2022-09-09T08:07:24;5.13;;;1.98;;
53479;SDS011;56133;51.012;-1.648;2022-09-09T08:09:49;8.48;;;2.30;;
53479;SDS011;56133;51.012;-1.648;2022-09-09T08:12:14;5.13;;;2.17;;
53479;SDS011;56133;51.012;-1.648;2022-09-09T08:14:40;6.57;;;2.47;;
53479;SDS011;56133;51.012;-1.648;2022-09-09T08:17:05;7.28;;;2.20;;
53479;SDS011;56133;51.012;-1.648;2022-09-09T08:19:31;4.55;;;2.00;;
53479;SDS011;56133;51.012;-1.648;2022-09-09T08:22:00;5.95;;;2.10;;
53479;SDS011;56133;51.012;-1.648;2022-09-09T08:24:27;5.50;;;1.52;;
53479;SDS011;56133;51.012;-1.648;2022-09-09T08:26:52;3.95;;;1.33;;
53479;SDS011;56133;51.012;-1.648;2022-09-09T08:29:18;7.38;;;1.60;;
53479;SDS011;56133;51.012;-1.648;2022-09-09T08:31:45;7.45;;;1.60;;
53479;SDS011;56133;51.012;-1.648;2022-09-09T08:34:12;5.50;;;1.40;;
53479;SDS011;56133;51.012;-1.648;2022-09-09T08:36:39;8.73;;;1.58;;
53479;SDS011;56133;51.012;-1.648;2022-09-09T08:39:10;4.40;;;1.45;;
53479;SDS011;56133;51.012;-1.648;2022-09-09T08:52:13;3.97;;;1.20;;
53479;SDS011;56133;51.012;-1.648;2022-09-09T08:54:44;3.72;;;1.30;;
53479;SDS011;56133;51.012;-1.648;2022-09-09T08:57:14;4.35;;;1.20;;
53479;SDS011;56133;51.012;-1.648;2022-09-09T08:59:47;7.25;;;1.42;;
53479;SDS011;56133;51.012;-1.648;2022-09-09T09:02:17;3.75;;;1.10;;
53479;SDS011;56133;51.012;-1.648;2022-09-09T09:05:07;4.32;;;1.08;;
53479;SDS011;56133;51.012;-1.648;2022-09-09T09:10:33;4.45;;;1.00;;
53479;SDS011;56133;51.012;-1.648;2022-09-09T09:13:03;6.70;;;1.10;;
53479;SDS011;56133;51.012;-1.648;2022-09-09T09:15:38;3.92;;;0.85;;
53479;SDS011;56133;51.012;-1.648;2022-09-09T09:18:05;5.63;;;1.00;;
53479;SDS011;56133;51.012;-1.648;2022-09-09T09:23:21;4.40;;;1.02;;
53479;SDS011;56133;51.012;-1.648;2022-09-09T09:25:49;5.07;;;1.02;;
53479;SDS011;56133;51.012;-1.648;2022-09-09T09:28:38;3.45;;;1.13;;
53479;SDS011;56133;51.012;-1.648;2022-09-09T09:31:08;7.88;;;1.85;;
53479;SDS011;56133;51.012;-1.648;2022-09-09T09:33:51;5.38;;;1.30;;
53479;SDS011;56133;51.012;-1.648;2022-09-09T09:36:19;3.50;;;1.35;;
53479;SDS011;56133;51.012;-1.648;2022-09-09T09:38:52;4.05;;;1.20;;
53479;SDS011;56133;51.012;-1.648;2022-09-09T09:41:34;5.65;;;1.45;;
53479;SDS011;56133;51.012;-1.648;2022-09-09T09:44:00;3.90;;;1.20;;
53479;SDS011;56133;51.012;-1.648;2022-09-09T09:46:27;6.03;;;1.45;;
53479;SDS011;56133;51.012;-1.648;2022-09-09T09:48:56;4.25;;;1.38;;
53479;SDS011;56133;51.012;-1.648;2022-09-09T09:51:26;4.70;;;1.50;;
53479;SDS011;56133;51.012;-1.648;2022-09-09T09:53:54;7.53;;;1.30;;
53479;SDS011;56133;51.012;-1.648;2022-09-09T09:56:34;4.32;;;1.33;;
53479;SDS011;56133;51.012;-1.648;2022-09-09T09:59:00;5.07;;;1.35;;
53479;SDS011;56133;51.012;-1.648;2022-09-09T10:01:27;4.50;;;1.30;;
53479;SDS011;56133;51.012;-1.648;2022-09-09T10:03:57;5.20;;;1.23;;
53479;SDS011;56133;51.012;-1.648;2022-09-09T10:06:34;5.07;;;1.10;;
53479;SDS011;56133;51.012;-1.648;2022-09-09T10:09:02;4.40;;;1.05;;
53479;SDS011;56133;51.012;-1.648;2022-09-09T10:14:20;4.22;;;1.20;;
53479;SDS011;56133;51.012;-1.648;2022-09-09T10:19:21;5.97;;;1.27;;
53479;SDS011;56133;51.012;-1.648;2022-09-09T10:38:20;4.22;;;1.60;;
53479;SDS011;56133;51.012;-1.648;2022-09-09T10:41:13;6.32;;;1.95;;
53479;SDS011;56133;51.012;-1.648;2022-09-09T10:57:11;7.25;;;1.83;;
53479;SDS011;56133;51.012;-1.648;2022-09-09T10:59:46;3.53;;;1.98;;
53479;SDS011;56133;51.012;-1.648;2022-09-09T11:02:30;4.88;;;2.75;;
53479;SDS011;56133;51.012;-1.648;2022-09-09T11:07:37;5.95;;;2.40;;
53479;SDS011;56133;51.012;-1.648;2022-09-09T11:10:24;3.60;;;2.10;;
53479;SDS011;56133;51.012;-1.648;2022-09-09T11:12:53;4.53;;;2.33;;
53479;SDS011;56133;51.012;-1.648;2022-09-09T11:15:29;3.50;;;1.80;;
53479;SDS011;56133;51.012;-1.648;2022-09-09T11:18:01;5.03;;;2.30;;
53479;SDS011;56133;51.012;-1.648;2022-09-09T11:20:29;4.55;;;2.20;;
53479;SDS011;56133;51.012;-1.648;2022-09-09T11:23:04;5.38;;;2.40;;
53479;SDS011;56133;51.012;-1.648;2022-09-09T11:40:37;5.03;;;1.42;;
53479;SDS011;56133;51.012;-1.648;2022-09-09T11:43:04;3.10;;;1.20;;
53479;SDS011;56133;51.012;-1.648;2022-09-09T11:45:31;2.60;;;1.10;;
53479;SDS011;56133;51.012;-1.648;2022-09-09T11:48:01;2.50;;;1.17;;
53479;SDS011;56133;51.012;-1.648;2022-09-09T11:50:29;3.63;;;1.30;;
53479;SDS011;56133;51.012;-1.648;2022-09-09T11:53:05;2.13;;;1.30;;
53479;SDS011;56133;51.012;-1.648;2022-09-09T11:55:48;3.05;;;1.58;;
53479;SDS011;56133;51.012;-1.648;2022-09-09T11:58:26;2.25;;;1.10;;
53479;SDS011;56133;51.012;-1.648;2022-09-09T12:00:57;2.45;;;1.60;;
53479;SDS011;56133;51.012;-1.648;2022-09-09T12:03:43;2.20;;;1.50;;
53479;SDS011;56133;51.012;-1.648;2022-09-09T12:06:20;6.07;;;1.65;;
53479;SDS011;56133;51.012;-1.648;2022-09-09T12:08:55;5.40;;;1.90;;
53479;SDS011;56133;51.012;-1.648;2022-09-09T12:11:36;5.95;;;2.30;;
53479;SDS011;56133;51.012;-1.648;2022-09-09T12:14:02;5.07;;;2.60;;
53479;SDS011;56133;51.012;-1.648;2022-09-09T12:16:32;4.57;;;2.60;;
53479;SDS011;56133;51.012;-1.648;2022-09-09T12:19:33;3.67;;;2.92;;
53479;SDS011;56133;51.012;-1.648;2022-09-09T12:21:54;3.47;;;2.50;;
53479;SDS011;56133;51.012;-1.648;2022-09-09T12:24:30;3.85;;;2.92;;
53479;SDS011;56133;51.012;-1.648;2022-09-09T12:32:06;2.05;;;1.83;;
53479;SDS011;56133;51.012;-1.648;2022-09-09T12:37:27;2.75;;;1.77;;
53479;SDS011;56133;51.012;-1.648;2022-09-09T12:39:54;2.80;;;1.45;;
53479;SDS011;56133;51.012;-1.648;2022-09-09T12:42:22;10.23;;;2.28;;
53479;SDS011;56133;51.012;-1.648;2022-09-09T12:44:55;3.35;;;1.48;;
53479;SDS011;56133;51.012;-1.648;2022-09-09T12:47:28;3.78;;;1.38;;
53479;SDS011;56133;51.012;-1.648;2022-09-09T12:50:02;3.13;;;1.27;;
53479;SDS011;56133;51.012;-1.648;2022-09-09T12:52:30;2.40;;;1.30;;
53479;SDS011;56133;51.012;-1.648;2022-09-09T12:55:02;3.85;;;1.83;;
53479;SDS011;56133;51.012;-1.648;2022-09-09T12:57:33;2.00;;;1.50;;
53479;SDS011;56133;51.012;-1.648;2022-09-09T13:00:06;3.78;;;1.63;;
53479;SDS011;56133;51.012;-1.648;2022-09-09T13:02:44;2.60;;;1.50;;
53479;SDS011;56133;51.012;-1.648;2022-09-09T13:05:13;4.50;;;1.98;;
53479;SDS011;56133;51.012;-1.648;2022-09-09T13:07:41;2.15;;;1.45;;
53479;SDS011;56133;51.012;-1.648;2022-09-09T13:10:10;2.65;;;1.42;;
53479;SDS011;56133;51.012;-1.648;2022-09-09T13:12:38;2.72;;;1.50;;
53479;SDS011;56133;51.012;-1.648;2022-09-09T13:15:04;2.67;;;1.40;;
53479;SDS011;56133;51.012;-1.648;2022-09-09T13:17:41;2.58;;;1.00;;
53479;SDS011;56133;51.012;-1.648;2022-09-09T13:20:15;5.07;;;1.73;;
53479;SDS011;56133;51.012;-1.648;2022-09-09T13:22:42;3.95;;;1.17;;
53479;SDS011;56133;51.012;-1.648;2022-09-09T13:27:50;3.05;;;1.30;;
53479;SDS011;56133;51.012;-1.648;2022-09-09T13:38:28;3.38;;;1.20;;
53479;SDS011;56133;51.012;-1.648;2022-09-09T13:40:59;3.20;;;1.23;;
53479;SDS011;56133;51.012;-1.648;2022-09-09T13:43:29;2.33;;;1.40;;
53479;SDS011;56133;51.012;-1.648;2022-09-09T13:46:00;2.75;;;1.80;;
53479;SDS011;56133;51.012;-1.648;2022-09-09T13:48:27;6.35;;;2.40;;
53479;SDS011;56133;51.012;-1.648;2022-09-09T13:50:53;3.97;;;1.98;;
53479;SDS011;56133;51.012;-1.648;2022-09-09T13:53:25;2.95;;;1.60;;
53479;SDS011;56133;51.012;-1.648;2022-09-09T13:55:51;2.17;;;1.00;;
53479;SDS011;56133;51.012;-1.648;2022-09-09T13:58:18;3.90;;;0.90;;
53479;SDS011;56133;51.012;-1.648;2022-09-09T14:00:44;3.55;;;1.10;;
53479;SDS011;56133;51.012;-1.648;2022-09-09T14:03:10;4.65;;;1.10;;
53479;SDS011;56133;51.012;-1.648;2022-09-09T14:05:36;4.38;;;1.38;;
53479;SDS011;56133;51.012;-1.648;2022-09-09T14:08:05;4.10;;;1.52;;
53479;SDS011;56133;51.012;-1.648;2022-09-09T14:10:33;3.05;;;1.95;;
53479;SDS011;56133;51.012;-1.648;2022-09-09T14:13:02;4.18;;;1.50;;
53479;SDS011;56133;51.012;-1.648;2022-09-09T14:15:28;5.05;;;1.73;;
53479;SDS011;56133;51.012;-1.648;2022-09-09T14:17:54;2.83;;;1.40;;
53479;SDS011;56133;51.012;-1.648;2022-09-09T14:20:19;6.07;;;1.95;;
53479;SDS011;56133;51.012;-1.648;2022-09-09T14:22:45;3.72;;;2.10;;
53479;SDS011;56133;51.012;-1.648;2022-09-09T14:25:11;3.75;;;2.08;;
53479;SDS011;56133;51.012;-1.648;2022-09-09T14:27:38;7.38;;;2.30;;
53479;SDS011;56133;51.012;-1.648;2022-09-09T14:30:05;4.82;;;2.35;;
53479;SDS011;56133;51.012;-1.648;2022-09-09T14:32:31;4.28;;;2.55;;
53479;SDS011;56133;51.012;-1.648;2022-09-09T14:34:57;6.05;;;2.85;;
53479;SDS011;56133;51.012;-1.648;2022-09-09T14:37:22;6.28;;;2.85;;
53479;SDS011;56133;51.012;-1.648;2022-09-09T14:39:48;5.15;;;2.70;;
53479;SDS011;56133;51.012;-1.648;2022-09-09T14:42:15;5.65;;;3.20;;
53479;SDS011;56133;51.012;-1.648;2022-09-09T14:44:41;5.20;;;3.40;;
53479;SDS011;56133;51.012;-1.648;2022-09-09T14:47:07;7.70;;;3.00;;
53479;SDS011;56133;51.012;-1.648;2022-09-09T14:49:34;5.45;;;3.28;;
53479;SDS011;56133;51.012;-1.648;2022-09-09T14:52:00;4.38;;;2.28;;
53479;SDS011;56133;51.012;-1.648;2022-09-09T14:54:26;5.00;;;2.00;;
53479;SDS011;56133;51.012;-1.648;2022-09-09T14:56:53;2.88;;;1.65;;
53479;SDS011;56133;51.012;-1.648;2022-09-09T14:59:19;3.05;;;1.80;;
53479;SDS011;56133;51.012;-1.648;2022-09-09T15:01:44;2.53;;;1.50;;
53479;SDS011;56133;51.012;-1.648;2022-09-09T15:04:10;3.00;;;1.33;;
53479;SDS011;56133;51.012;-1.648;2022-09-09T15:06:37;3.42;;;1.80;;
53479;SDS011;56133;51.012;-1.648;2022-09-09T15:09:04;2.97;;;1.67;;
53479;SDS011;56133;51.012;-1.648;2022-09-09T15:11:30;6.35;;;1.80;;
53479;SDS011;56133;51.012;-1.648;2022-09-09T15:14:02;2.65;;;1.40;;
53479;SDS011;56133;51.012;-1.648;2022-09-09T15:16:28;3.47;;;1.63;;
53479;SDS011;56133;51.012;-1.648;2022-09-09T15:18:55;3.70;;;1.63;;
53479;SDS011;56133;51.012;-1.648;2022-09-09T15:21:24;2.97;;;1.70;;
53479;SDS011;56133;51.012;-1.648;2022-09-09T15:23:52;3.65;;;1.35;;
53479;SDS011;56133;51.012;-1.648;2022-09-09T15:26:18;3.53;;;1.50;;
53479;SDS011;56133;51.012;-1.648;2022-09-09T15:28:44;1.95;;;1.10;;
53479;SDS011;56133;51.012;-1.648;2022-09-09T15:31:13;2.88;;;1.20;;
53479;SDS011;56133;51.012;-1.648;2022-09-09T15:33:46;3.08;;;1.55;;
53479;SDS011;56133;51.012;-1.648;2022-09-09T15:36:15;3.70;;;1.60;;
53479;SDS011;56133;51.012;-1.648;2022-09-09T15:38:49;2.92;;;1.50;;
53479;SDS011;56133;51.012;-1.648;2022-09-09T15:41:16;2.75;;;2.00;;
53479;SDS011;56133;51.012;-1.648;2022-09-09T15:43:49;3.85;;;1.60;;
53479;SDS011;56133;51.012;-1.648;2022-09-09T15:48:49;4.63;;;2.20;;
53479;SDS011;56133;51.012;-1.648;2022-09-09T15:51:15;5.00;;;2.00;;
53479;SDS011;56133;51.012;-1.648;2022-09-09T15:53:41;3.60;;;1.80;;
53479;SDS011;56133;51.012;-1.648;2022-09-09T15:56:06;4.68;;;2.10;;
53479;SDS011;56133;51.012;-1.648;2022-09-09T15:58:33;4.43;;;1.92;;
53479;SDS011;56133;51.012;-1.648;2022-09-09T16:01:06;4.03;;;2.10;;
53479;SDS011;56133;51.012;-1.648;2022-09-09T16:03:36;4.25;;;1.80;;
53479;SDS011;56133;51.012;-1.648;2022-09-09T16:06:03;6.20;;;2.38;;
53479;SDS011;56133;51.012;-1.648;2022-09-09T16:08:37;5.22;;;2.25;;
53479;SDS011;56133;51.012;-1.648;2022-09-09T16:11:09;5.18;;;2.25;;
53479;SDS011;56133;51.012;-1.648;2022-09-09T16:13:37;4.70;;;2.30;;
53479;SDS011;56133;51.012;-1.648;2022-09-09T16:16:03;4.95;;;2.58;;
53479;SDS011;56133;51.012;-1.648;2022-09-09T16:18:41;4.50;;;1.90;;
53479;SDS011;56133;51.012;-1.648;2022-09-09T16:21:32;4.35;;;1.80;;
53479;SDS011;56133;51.012;-1.648;2022-09-09T16:23:58;4.45;;;1.85;;
53479;SDS011;56133;51.012;-1.648;2022-09-09T16:26:26;3.30;;;2.08;;
53479;SDS011;56133;51.012;-1.648;2022-09-09T16:28:52;4.65;;;2.50;;
53479;SDS011;56133;51.012;-1.648;2022-09-09T16:31:20;5.50;;;2.38;;
53479;SDS011;56133;51.012;-1.648;2022-09-09T16:33:47;6.40;;;2.45;;
53479;SDS011;56133;51.012;-1.648;2022-09-09T16:36:18;4.55;;;2.75;;
53479;SDS011;56133;51.012;-1.648;2022-09-09T16:38:54;5.30;;;3.20;;
53479;SDS011;56133;51.012;-1.648;2022-09-09T16:41:20;5.55;;;2.72;;
53479;SDS011;56133;51.012;-1.648;2022-09-09T16:43:46;5.85;;;2.75;;
53479;SDS011;56133;51.012;-1.648;2022-09-09T16:46:13;8.35;;;3.42;;
53479;SDS011;56133;51.012;-1.648;2022-09-09T16:48:43;6.63;;;3.28;;
53479;SDS011;56133;51.012;-1.648;2022-09-09T16:51:29;6.82;;;3.17;;
53479;SDS011;56133;51.012;-1.648;2022-09-09T16:54:00;5.40;;;3.13;;
53479;SDS011;56133;51.012;-1.648;2022-09-09T16:56:28;4.72;;;2.90;;
53479;SDS011;56133;51.012;-1.648;2022-09-09T16:58:56;7.95;;;3.38;;
53479;SDS011;56133;51.012;-1.648;2022-09-09T17:01:24;7.18;;;3.20;;
53479;SDS011;56133;51.012;-1.648;2022-09-09T17:03:53;6.07;;;3.22;;
53479;SDS011;56133;51.012;-1.648;2022-09-09T17:06:23;5.63;;;3.25;;